Time;durP1;ratioP1;P1;durP2;ratioP2;P2;SDS_P1;SDS_P2;PMS_P1;PMS_P2;Temp;Humidity;BMP_temperature;BMP_pressure;BME280_temperature;BME280_humidity;BME280_pressure;Samples;Min_cycle;Max_cycle;Signal;HPM_P1;HPM_P2
2022/01/18 00:00:44;;;;;;;7.07;1.42;;;;;;;3.05;48.08;99569.59;4486730;32;20497;-81
2022/01/18 00:03:10;;;;;;;7.35;1.65;;;;;;;3.09;48.23;99579.09;4482843;32;108369;-81
2022/01/18 00:05:36;;;;;;;6.50;1.50;;;;;;;3.00;48.33;99595.69;4486690;32;20139;-82
2022/01/18 00:08:02;;;;;;;7.50;1.62;;;;;;;2.99;48.53;99593.09;4459621;32;20185;-80
2022/01/18 00:10:30;;;;;;;9.70;1.62;;;;;;;2.79;48.83;99603.72;4486907;32;20119;-81
2022/01/18 00:18:05;;;;;;;5.70;1.42;;;;;;;2.60;49.45;99613.44;4486496;32;20092;-81
2022/01/18 00:23:21;;;;;;;5.70;1.35;;;;;;;2.71;49.42;99622.88;4486632;32;20100;-80
2022/01/18 00:25:51;;;;;;;6.10;1.60;;;;;;;2.41;50.00;99608.38;4471807;32;20123;-80
2022/01/18 00:28:17;;;;;;;8.52;1.52;;;;;;;2.47;49.89;99623.97;4486374;32;20084;-81
2022/01/18 00:36:02;;;;;;;5.50;1.23;;;;;;;2.35;50.42;99624.03;4486432;32;20619;-80
2022/01/18 00:38:43;;;;;;;7.22;1.62;;;;;;;2.48;50.16;99630.00;4486078;32;20096;-81
2022/01/18 00:41:09;;;;;;;9.18;1.62;;;;;;;2.21;50.87;99633.69;4472034;32;20454;-81
2022/01/18 00:43:34;;;;;;;6.30;1.33;;;;;;;2.23;51.12;99634.53;4471886;32;20093;-82
2022/01/18 00:45:59;;;;;;;9.13;1.62;;;;;;;2.39;50.67;99636.13;4486248;32;20124;-81
2022/01/18 00:48:25;;;;;;;8.73;1.48;;;;;;;2.43;50.73;99636.97;4472722;32;20088;-80
2022/01/18 00:50:52;;;;;;;6.35;1.48;;;;;;;2.21;51.05;99631.94;4487887;32;20144;-81
2022/01/18 00:53:19;;;;;;;7.05;1.50;;;;;;;2.22;50.92;99618.09;4488051;32;20114;-81
2022/01/18 00:56:05;;;;;;;9.48;1.98;;;;;;;2.07;51.34;99626.00;4473738;32;20065;-80
2022/01/18 00:58:30;;;;;;;9.18;1.80;;;;;;;2.05;51.47;99619.91;4473817;32;20146;-80
2022/01/18 01:00:56;;;;;;;7.87;1.65;;;;;;;1.90;51.64;99626.09;4488090;32;20092;-81
2022/01/18 01:03:21;;;;;;;10.77;1.98;;;;;;;1.97;51.90;99617.38;4473114;32;20111;-79
2022/01/18 01:05:47;;;;;;;9.23;1.45;;;;;;;2.12;51.36;99622.47;4488093;32;20106;-80
2022/01/18 01:08:12;;;;;;;7.65;1.50;;;;;;;1.93;51.93;99631.25;4473839;32;20112;-81
2022/01/18 01:10:37;;;;;;;9.07;1.73;;;;;;;1.76;52.29;99624.44;4488135;32;20109;-80
2022/01/18 01:13:04;;;;;;;8.52;2.25;;;;;;;2.10;51.74;99633.75;4473906;32;20383;-81
2022/01/18 01:15:33;;;;;;;11.65;2.00;;;;;;;2.14;51.74;99633.75;4487555;32;20546;-81
2022/01/18 01:18:19;;;;;;;9.40;1.70;;;;;;;2.25;51.64;99641.44;4473843;32;20487;-81
2022/01/18 01:41:46;;;;;;;9.68;1.60;;;;;;;2.32;51.74;99650.06;4442368;32;20121;-81
2022/01/18 01:45:23;;;;;;;8.57;1.73;;;;;;;2.34;51.34;99636.19;4469727;32;20089;-80
2022/01/18 01:47:51;;;;;;;6.57;1.52;;;;;;;2.30;51.31;99647.47;4457116;32;20077;-80
2022/01/18 01:50:19;;;;;;;7.87;1.60;;;;;;;2.61;50.63;99656.75;4469985;32;20178;-80
2022/01/18 01:52:50;;;;;;;8.43;1.58;;;;;;;2.35;51.06;99663.03;4469491;32;20100;-81
2022/01/18 01:55:16;;;;;;;6.82;1.58;;;;;;;2.33;51.25;99668.25;4456784;32;20097;-80
2022/01/18 01:57:42;;;;;;;7.55;1.30;;;;;;;2.24;51.61;99676.13;4481521;32;20533;-82
2022/01/18 02:00:16;;;;;;;6.62;1.45;;;;;;;2.22;51.53;99685.69;4472591;32;20092;-81
2022/01/18 02:02:42;;;;;;;7.97;1.73;;;;;;;2.34;51.25;99674.31;4473374;32;20123;-81
2022/01/18 02:05:09;;;;;;;8.38;1.75;;;;;;;2.38;51.13;99676.03;4487132;32;20116;-80
2022/01/18 02:07:34;;;;;;;6.40;1.62;;;;;;;2.31;51.20;99680.37;4487665;32;20085;-81
2022/01/18 02:10:00;;;;;;;8.15;1.58;;;;;;;2.43;51.08;99679.44;4487747;32;20150;-79
2022/01/18 02:12:25;;;;;;;9.20;1.83;;;;;;;2.55;50.78;99665.50;4473309;32;20097;-80
2022/01/18 02:14:58;;;;;;;5.12;1.20;;;;;;;2.15;51.66;99669.22;4487448;32;20178;-81
2022/01/18 02:22:56;;;;;;;7.07;1.55;;;;;;;2.34;51.27;99687.31;4423145;32;20127;-79
2022/01/18 02:25:23;;;;;;;8.95;1.98;;;;;;;1.98;52.15;99691.84;4423118;32;20257;-81
2022/01/18 02:27:48;;;;;;;6.68;1.60;;;;;;;2.03;52.17;99686.63;4422856;32;20449;-81
2022/01/18 02:30:14;;;;;;;8.13;1.50;;;;;;;2.03;52.25;99677.12;4423079;32;20156;-81
2022/01/18 02:32:39;;;;;;;9.23;1.73;;;;;;;2.09;51.99;99671.88;4423104;32;20156;-80
2022/01/18 02:35:05;;;;;;;9.43;2.12;;;;;;;2.13;51.77;99688.31;4423157;32;20182;-81
2022/01/18 02:37:31;;;;;;;8.68;2.22;;;;;;;2.11;52.04;99671.88;4422863;32;20197;-80
2022/01/18 02:39:56;;;;;;;7.72;1.50;;;;;;;2.09;52.06;99666.69;4409945;32;20121;-81
2022/01/18 02:42:28;;;;;;;9.80;1.67;;;;;;;1.79;52.92;99665.09;4422903;32;20168;-82
2022/01/18 02:44:54;;;;;;;7.95;2.00;;;;;;;1.96;52.53;99681.47;4423128;32;20094;-81
2022/01/18 02:47:21;;;;;;;9.10;1.50;;;;;;;1.88;52.79;99687.59;4410104;32;20157;-82
2022/01/18 02:49:47;;;;;;;10.10;2.13;;;;;;;1.85;53.01;99709.22;4422918;32;20105;-81
2022/01/18 02:52:14;;;;;;;7.95;1.77;;;;;;;1.92;52.46;99704.88;4409867;32;20829;-82
2022/01/18 02:54:39;;;;;;;8.55;1.98;;;;;;;2.02;52.71;99706.56;4423164;32;20417;-81
2022/01/18 02:57:11;;;;;;;9.68;1.87;;;;;;;2.10;52.25;99707.38;4449895;32;20103;-82
2022/01/18 02:59:50;;;;;;;7.55;1.60;;;;;;;2.11;52.37;99711.72;4473908;32;20802;-81
2022/01/18 03:05:09;;;;;;;8.07;1.73;;;;;;;2.10;52.22;99709.13;4486905;32;20119;-81
2022/01/18 03:07:35;;;;;;;8.27;1.70;;;;;;;1.94;52.62;99708.34;4472958;32;20488;-80
2022/01/18 03:10:02;;;;;;;9.43;1.83;;;;;;;1.83;52.91;99723.12;4472950;32;20101;-81
2022/01/18 03:12:27;;;;;;;8.93;1.77;;;;;;;2.16;52.22;99729.88;4486846;32;20088;-80
2022/01/18 03:14:53;;;;;;;9.15;1.60;;;;;;;2.01;52.69;99745.53;4487189;32;20126;-81
2022/01/18 03:17:18;;;;;;;7.68;1.40;;;;;;;2.14;52.19;99745.50;4472403;32;20080;-82
2022/01/18 03:19:44;;;;;;;8.93;1.60;;;;;;;2.20;52.14;99741.13;4487166;32;20394;-81
2022/01/18 03:22:09;;;;;;;6.60;1.65;;;;;;;2.23;52.14;99748.91;4487395;32;20180;-82
2022/01/18 03:25:02;;;;;;;8.40;1.45;;;;;;;2.29;51.92;99752.34;4487186;32;20080;-80
2022/01/18 03:30:07;;;;;;;7.85;1.60;;;;;;;2.05;52.31;99762.84;4474674;32;20539;-82
2022/01/18 03:32:33;;;;;;;9.20;1.55;;;;;;;2.15;52.25;99769.75;4486941;32;20093;-82
2022/01/18 03:34:59;;;;;;;7.03;1.37;;;;;;;2.10;52.22;99787.09;4487233;32;20088;-81
2022/01/18 03:37:24;;;;;;;8.55;1.40;;;;;;;2.30;51.86;99781.81;4472520;32;20080;-81
2022/01/18 03:39:50;;;;;;;8.75;1.48;;;;;;;2.11;52.15;99789.69;4486969;32;20177;-81
2022/01/18 03:45:03;;;;;;;7.85;1.33;;;;;;;2.16;52.13;99802.66;4487092;32;20111;-82
2022/01/18 03:47:29;;;;;;;6.10;1.83;;;;;;;2.36;51.68;99787.84;4486904;32;20447;-81
2022/01/18 03:49:54;;;;;;;6.72;1.40;;;;;;;2.12;51.95;99804.41;4472637;32;20167;-82
2022/01/18 03:52:20;;;;;;;12.37;1.90;;;;;;;2.42;51.35;99802.56;4486899;32;20192;-82
2022/01/18 03:54:47;;;;;;;8.77;1.58;;;;;;;2.21;51.61;99813.91;4472326;32;20218;-80
2022/01/18 03:57:14;;;;;;;11.70;1.42;;;;;;;2.00;52.21;99814.00;4472932;32;20148;-81
2022/01/18 03:59:39;;;;;;;7.30;1.50;;;;;;;2.32;51.44;99806.09;4486799;32;20096;-82
2022/01/18 04:02:06;;;;;;;8.57;1.45;;;;;;;1.95;51.94;99796.69;4486786;32;20143;-82
2022/01/18 04:04:32;;;;;;;9.60;2.00;;;;;;;2.17;51.92;99804.41;4472737;32;20418;-83
2022/01/18 04:06:58;;;;;;;6.10;1.35;;;;;;;2.09;52.06;99807.03;4486740;32;20075;-82
2022/01/18 04:09:23;;;;;;;7.68;1.50;;;;;;;2.20;51.83;99817.37;4486831;32;20134;-82
2022/01/18 04:11:48;;;;;;;8.75;2.03;;;;;;;1.91;52.35;99826.16;4487044;32;20080;-81
2022/01/18 04:14:14;;;;;;;7.03;1.20;;;;;;;2.12;52.01;99812.19;4472592;32;20100;-82
2022/01/18 04:16:57;;;;;;;9.60;2.15;;;;;;;2.23;51.99;99821.72;4486898;32;20138;-82
2022/01/18 04:27:27;;;;;;;8.65;1.45;;;;;;;2.02;52.26;99812.25;4486344;32;20159;-81
2022/01/18 04:29:52;;;;;;;10.70;1.50;;;;;;;1.77;52.68;99812.31;4486136;32;20440;-80
2022/01/18 04:32:17;;;;;;;7.75;1.67;;;;;;;1.89;52.42;99834.81;4472248;32;20100;-81
2022/01/18 04:34:43;;;;;;;7.95;1.33;;;;;;;1.93;52.26;99823.53;4486409;32;20096;-82
2022/01/18 04:37:09;;;;;;;9.95;1.85;;;;;;;2.15;51.73;99821.75;4472016;32;20088;-81
2022/01/18 04:39:38;;;;;;;10.07;1.70;;;;;;;2.12;51.62;99834.75;4486225;32;20111;-80
2022/01/18 04:42:11;;;;;;;9.50;1.52;;;;;;;1.94;52.00;99830.47;4472260;32;20122;-82
2022/01/18 04:50:05;;;;;;;6.43;1.27;;;;;;;1.90;52.30;99839.16;4474133;32;20111;-82
2022/01/18 04:52:30;;;;;;;6.28;1.40;;;;;;;1.83;52.40;99843.47;4486092;32;20092;-81
2022/01/18 04:55:00;;;;;;;8.50;1.60;;;;;;;1.77;52.58;99854.75;4485740;32;20110;-82
2022/01/18 05:00:11;;;;;;;7.72;1.37;;;;;;;1.71;52.99;99862.56;4486040;32;20538;-81
2022/01/18 05:02:36;;;;;;;8.88;1.75;;;;;;;2.03;52.45;99877.22;4471729;32;20092;-80
2022/01/18 05:05:02;;;;;;;6.85;1.58;;;;;;;1.98;52.50;99883.31;4471436;32;20091;-81
2022/01/18 05:07:28;;;;;;;11.80;2.10;;;;;;;1.74;53.31;99866.91;4485678;32;20073;-82
2022/01/18 05:09:54;;;;;;;6.93;1.62;;;;;;;1.71;53.63;99864.28;4471853;32;20155;-81
2022/01/18 05:12:33;;;;;;;5.72;1.40;;;;;;;1.86;53.22;99866.00;4486191;32;20148;-81
2022/01/18 05:15:05;;;;;;;5.80;1.50;;;;;;;1.81;53.40;99866.00;4486062;32;20107;-82
2022/01/18 05:18:08;;;;;;;7.07;1.70;;;;;;;1.85;53.53;99864.28;4485946;32;20084;-82
2022/01/18 05:23:01;;;;;;;9.60;1.55;;;;;;;1.58;54.36;99873.81;4471334;32;20101;-82
2022/01/18 05:25:29;;;;;;;10.90;1.48;;;;;;;1.54;54.59;99874.69;4485510;32;20084;-82
2022/01/18 05:27:59;;;;;;;7.45;1.60;;;;;;;1.64;54.56;99886.81;4471575;32;20143;-82
2022/01/18 05:30:25;;;;;;;9.35;1.77;;;;;;;1.68;54.41;99896.34;4485643;32;20800;-83
2022/01/18 05:32:51;;;;;;;9.20;1.70;;;;;;;1.63;54.51;99890.28;4457894;32;20130;-82
2022/01/18 05:35:16;;;;;;;7.15;1.65;;;;;;;1.46;55.37;99899.81;4487116;32;20443;-82
2022/01/18 05:37:42;;;;;;;9.35;1.95;;;;;;;1.60;54.88;99897.19;4488005;32;20129;-82
2022/01/18 05:40:08;;;;;;;10.88;1.87;;;;;;;1.57;55.12;99911.06;4488079;32;20352;-82
2022/01/18 05:42:33;;;;;;;8.98;1.75;;;;;;;1.52;55.47;99897.19;4488092;32;20096;-81
2022/01/18 05:44:59;;;;;;;9.48;1.67;;;;;;;1.51;55.42;99904.13;4487644;32;20088;-81
2022/01/18 05:47:24;;;;;;;6.82;1.65;;;;;;;1.31;56.30;99901.53;4473618;32;20088;-82
2022/01/18 05:49:50;;;;;;;8.98;1.60;;;;;;;1.49;55.80;99903.28;4488016;32;20128;-82
2022/01/18 05:52:15;;;;;;;10.30;2.45;;;;;;;1.48;55.85;99909.31;4487939;32;20118;-82
2022/01/18 05:54:41;;;;;;;5.03;1.62;;;;;;;1.57;55.81;99924.06;4487909;32;20106;-81
2022/01/18 05:57:06;;;;;;;8.88;1.50;;;;;;;1.51;56.19;99911.06;4487639;32;20072;-86
2022/01/18 05:59:37;;;;;;;6.22;1.27;;;;;;;1.47;56.20;99917.97;4473305;32;20166;-81
2022/01/18 06:02:15;;;;;;;7.78;1.48;;;;;;;1.65;55.72;99918.84;4487876;32;20092;-84
2022/01/18 06:07:25;;;;;;;8.05;1.80;;;;;;;1.45;56.27;99917.13;4475183;32;20115;-78
2022/01/18 06:09:53;;;;;;;6.30;1.62;;;;;;;1.72;55.66;99916.25;4473433;32;20104;-80
2022/01/18 06:12:18;;;;;;;8.35;1.52;;;;;;;1.68;56.05;99930.13;4487656;32;20097;-81
2022/01/18 06:14:45;;;;;;;14.00;2.40;;;;;;;1.51;56.64;99921.47;4473460;32;20157;-81
2022/01/18 06:17:10;;;;;;;9.40;1.75;;;;;;;1.54;56.67;99929.22;4487216;32;20127;-80
2022/01/18 06:19:36;;;;;;;10.98;1.85;;;;;;;1.29;57.44;99933.53;4485423;32;20088;-80
2022/01/18 06:22:01;;;;;;;10.15;1.80;;;;;;;1.46;57.07;99925.78;4487651;32;20133;-80
2022/01/18 06:24:27;;;;;;;7.53;1.45;;;;;;;1.44;57.16;99932.69;4487474;32;20144;-80
2022/01/18 06:26:52;;;;;;;8.82;1.60;;;;;;;1.48;57.04;99939.63;4473239;32;20084;-80
2022/01/18 06:29:18;;;;;;;8.98;1.70;;;;;;;1.41;57.04;99925.78;4473153;32;20100;-80
2022/01/18 06:31:43;;;;;;;12.93;2.72;;;;;;;1.63;56.59;99929.25;4487643;32;20115;-80
2022/01/18 06:34:09;;;;;;;10.63;2.30;;;;;;;1.72;56.15;99925.75;4473195;32;20089;-80
2022/01/18 06:36:34;;;;;;;11.35;2.20;;;;;;;1.93;55.65;99928.38;4487405;32;20184;-79
2022/01/18 06:39:00;;;;;;;7.82;1.67;;;;;;;2.03;55.16;99925.72;4473009;32;20151;-80
2022/01/18 06:41:25;;;;;;;12.55;2.00;;;;;;;1.74;55.64;99934.44;4487533;32;20095;-80
2022/01/18 06:43:50;;;;;;;10.02;1.95;;;;;;;2.02;55.34;99930.06;4487375;32;20093;-80
2022/01/18 06:46:16;;;;;;;9.50;1.83;;;;;;;1.86;55.54;99938.75;4486855;32;20064;-79
2022/01/18 06:48:44;;;;;;;12.63;2.55;;;;;;;1.64;56.22;99961.25;4473122;32;20150;-79
2022/01/18 06:51:10;;;;;;;8.68;1.87;;;;;;;1.82;55.79;99943.09;4487424;32;20097;-79
2022/01/18 06:53:43;;;;;;;8.23;1.85;;;;;;;1.77;55.82;99956.06;4472669;31;20122;-80
2022/01/18 06:56:09;;;;;;;10.65;1.80;;;;;;;1.81;55.93;99961.28;4499628;31;20071;-80
2022/01/18 06:58:34;;;;;;;11.93;1.90;;;;;;;1.99;55.80;99961.28;4489914;31;20118;-79
2022/01/18 07:00:59;;;;;;;12.63;1.95;;;;;;;1.84;56.06;99961.28;4495656;31;20096;-79
2022/01/18 07:03:25;;;;;;;9.90;1.80;;;;;;;1.69;56.65;99952.59;4494031;31;20359;-80
2022/01/18 07:05:50;;;;;;;9.40;1.80;;;;;;;1.93;55.91;99948.25;4488130;31;20122;-80
2022/01/18 07:08:16;;;;;;;9.95;2.08;;;;;;;1.98;55.86;99943.94;4489420;31;20127;-84
2022/01/18 07:10:41;;;;;;;10.25;2.58;;;;;;;2.10;55.86;99963.84;4488277;31;20478;-84
2022/01/18 07:13:08;;;;;;;12.32;2.12;;;;;;;1.99;56.12;99963.00;4496101;31;20127;-83
2022/01/18 07:15:34;;;;;;;8.10;1.85;;;;;;;2.00;56.28;99946.53;4496104;31;20118;-82
2022/01/18 07:17:59;;;;;;;9.35;1.92;;;;;;;2.09;55.94;99962.13;4488174;31;20395;-82
2022/01/18 07:20:25;;;;;;;10.70;2.05;;;;;;;1.98;56.27;99956.06;4500578;31;20178;-82
2022/01/18 07:22:50;;;;;;;12.88;2.03;;;;;;;1.79;56.83;99957.81;4491449;31;20152;-82
2022/01/18 07:25:18;;;;;;;10.52;2.05;;;;;;;2.01;56.55;99946.56;4494980;31;20108;-82
2022/01/18 07:27:43;;;;;;;11.98;2.42;;;;;;;2.01;56.63;99943.94;4488386;31;20594;-82
2022/01/18 07:30:09;;;;;;;10.70;2.45;;;;;;;2.04;56.48;99937.88;4489481;31;20145;-82
2022/01/18 07:32:35;;;;;;;8.77;1.75;;;;;;;2.07;56.46;99935.28;4488179;31;20163;-81
2022/01/18 07:35:02;;;;;;;11.57;2.17;;;;;;;1.71;57.28;99943.09;4502494;31;20104;-81
2022/01/18 07:37:27;;;;;;;9.23;1.67;;;;;;;2.08;56.44;99950.00;4487879;31;20236;-81
2022/01/18 07:39:53;;;;;;;11.32;2.12;;;;;;;2.04;56.45;99935.28;4502707;31;20092;-82
2022/01/18 07:42:19;;;;;;;10.32;2.10;;;;;;;2.25;55.89;99932.63;4489310;31;20384;-82
2022/01/18 07:44:45;;;;;;;10.77;1.77;;;;;;;2.38;55.47;99946.47;4487944;31;20088;-83
2022/01/18 07:47:11;;;;;;;9.88;2.05;;;;;;;2.24;55.91;99950.81;4487999;31;20177;-82
2022/01/18 07:49:36;;;;;;;12.88;2.10;;;;;;;2.66;54.97;99956.78;4499758;31;20088;-82
2022/01/18 07:52:02;;;;;;;11.80;2.20;;;;;;;2.68;54.81;99966.31;4487996;31;20139;-81
2022/01/18 07:54:27;;;;;;;8.95;2.10;;;;;;;2.65;54.78;99971.53;4485704;31;20116;-82
2022/01/18 07:56:53;;;;;;;9.88;2.80;;;;;;;2.92;54.25;99983.56;4491161;31;20096;-81
2022/01/18 07:59:18;;;;;;;12.93;2.25;;;;;;;2.99;53.92;99987.00;4493212;31;20427;-81
2022/01/18 08:01:44;;;;;;;11.88;2.10;;;;;;;3.17;53.26;99979.97;4497133;31;20377;-81
2022/01/18 08:04:10;;;;;;;13.02;3.12;;;;;;;2.98;53.57;99989.62;4487727;31;20088;-83
2022/01/18 08:06:35;;;;;;;9.93;2.53;;;;;;;3.22;53.08;99996.44;4502666;31;20119;-82
2022/01/18 08:09:01;;;;;;;10.73;2.40;;;;;;;2.89;53.97;100003.53;4503015;31;20091;-82
2022/01/18 08:11:26;;;;;;;10.80;2.53;;;;;;;2.63;54.85;100012.31;4502851;31;20135;-81
2022/01/18 08:13:52;;;;;;;12.95;2.80;;;;;;;2.88;54.47;100020.03;4502486;31;20098;-81
2022/01/18 08:16:34;;;;;;;11.63;2.58;;;;;;;2.65;55.35;100022.72;4488413;31;20495;-80
2022/01/18 08:19:02;;;;;;;12.18;2.67;;;;;;;2.62;55.50;100030.50;4502893;31;20084;-81
2022/01/18 08:21:27;;;;;;;8.52;2.25;;;;;;;2.80;55.27;100020.06;4502537;31;20095;-80
2022/01/18 08:23:52;;;;;;;16.33;3.12;;;;;;;2.67;55.66;100037.44;4502415;31;20079;-80
2022/01/18 08:26:18;;;;;;;9.60;2.33;;;;;;;2.50;55.98;100045.25;4502362;31;20092;-80
2022/01/18 08:28:44;;;;;;;11.68;2.40;;;;;;;2.75;55.83;100048.69;4487939;31;20126;-80
2022/01/18 08:31:09;;;;;;;8.98;2.42;;;;;;;2.61;56.00;100050.47;4502403;31;20080;-80
2022/01/18 08:33:35;;;;;;;11.90;2.75;;;;;;;2.96;55.42;100049.50;4502370;31;20078;-80
2022/01/18 08:36:03;;;;;;;12.45;2.40;;;;;;;3.18;54.38;100042.47;4474779;31;20170;-80
2022/01/18 08:38:28;;;;;;;;;;;;;;;3.15;54.47;100038.13;4488164;31;20108;-80
2022/01/18 08:40:58;;;;;;;9.82;2.30;;;;;;;2.78;55.24;100055.59;4487904;31;20295;-80
2022/01/18 08:43:24;;;;;;;14.13;2.90;;;;;;;2.89;54.83;100064.25;4502072;31;20457;-80
2022/01/18 08:45:49;;;;;;;10.68;2.62;;;;;;;3.12;54.49;100072.00;4502043;31;20096;-81
2022/01/18 08:48:14;;;;;;;12.13;2.70;;;;;;;2.86;55.10;100060.78;4487750;31;20122;-80
2022/01/18 08:50:40;;;;;;;12.25;3.00;;;;;;;2.79;55.51;100072.09;4502063;31;20505;-80
2022/01/18 08:53:06;;;;;;;8.65;2.25;;;;;;;2.89;54.99;100063.41;4487617;31;20088;-81
2022/01/18 08:55:34;;;;;;;11.88;2.80;;;;;;;3.06;54.50;100056.41;4502038;31;20148;-81
2022/01/18 08:58:00;;;;;;;10.05;2.28;;;;;;;3.03;54.36;100064.22;4502090;31;20096;-80
2022/01/18 09:00:25;;;;;;;17.12;2.60;;;;;;;3.18;53.92;100068.50;4502028;31;20084;-80
2022/01/18 09:02:51;;;;;;;13.82;2.45;;;;;;;2.86;54.36;100073.81;4501844;31;20107;-80
2022/01/18 09:05:16;;;;;;;11.50;2.20;;;;;;;3.26;53.73;100086.69;4487360;31;20122;-81
2022/01/18 09:07:42;;;;;;;14.57;2.45;;;;;;;3.09;54.00;100078.94;4501807;31;20144;-81
2022/01/18 09:10:11;;;;;;;11.70;2.47;;;;;;;3.34;53.27;100095.34;4503298;31;20105;-81
2022/01/18 09:12:37;;;;;;;9.07;2.67;;;;;;;3.35;52.91;100086.66;4489843;31;20076;-81
2022/01/18 09:15:06;;;;;;;12.07;2.90;;;;;;;3.35;53.07;100089.28;4504024;31;20359;-80
2022/01/18 09:17:36;;;;;;;13.10;2.50;;;;;;;3.45;52.55;100090.97;4489689;31;20172;-80
2022/01/18 09:20:06;;;;;;;14.05;2.22;;;;;;;3.44;52.22;100077.94;4503878;31;20076;-81
2022/01/18 09:22:35;;;;;;;8.95;2.58;;;;;;;3.50;52.25;100103.97;4503852;31;20216;-80
2022/01/18 09:25:02;;;;;;;11.20;3.05;;;;;;;3.42;52.47;100097.91;4503755;31;20109;-80
2022/01/18 09:27:28;;;;;;;10.13;2.28;;;;;;;3.59;52.40;100106.50;4503889;31;20114;-81
2022/01/18 09:29:53;;;;;;;11.45;2.92;;;;;;;3.55;52.17;100115.22;4489688;31;20083;-81
2022/01/18 09:32:19;;;;;;;10.20;2.65;;;;;;;3.72;51.85;100095.16;4489711;31;20132;-81
2022/01/18 09:34:44;;;;;;;11.45;2.50;;;;;;;3.81;51.61;100103.81;4503993;31;20139;-81
2022/01/18 09:37:10;;;;;;;14.15;3.03;;;;;;;3.50;52.00;100104.84;4476431;31;20155;-80
2022/01/18 09:39:35;;;;;;;9.63;2.53;;;;;;;3.62;51.95;100103.91;4504050;31;20072;-81
2022/01/18 09:42:03;;;;;;;9.63;2.40;;;;;;;3.54;52.34;100108.31;4489655;31;20080;-80
2022/01/18 09:44:29;;;;;;;6.97;2.37;;;;;;;3.33;52.54;100119.66;4489541;31;20261;-81
2022/01/18 09:46:55;;;;;;;12.82;2.67;;;;;;;3.26;52.56;100111.00;4503959;31;20106;-80
2022/01/18 09:49:22;;;;;;;12.45;2.45;;;;;;;3.50;52.33;100106.59;4476106;31;20095;-80
2022/01/18 09:51:48;;;;;;;14.70;2.72;;;;;;;3.35;52.29;100110.09;4503948;31;20084;-80
2022/01/18 09:54:13;;;;;;;10.40;2.30;;;;;;;3.65;51.99;100103.00;4503880;31;20144;-81
2022/01/18 09:56:39;;;;;;;10.15;2.30;;;;;;;3.90;51.13;100099.41;4503887;31;20107;-81
2022/01/18 09:59:06;;;;;;;14.27;2.47;;;;;;;3.93;51.30;100101.13;4476053;31;20083;-80
2022/01/18 10:01:31;;;;;;;8.43;2.00;;;;;;;3.89;50.87;100091.59;4503541;31;20092;-81
2022/01/18 10:04:12;;;;;;;12.35;2.58;;;;;;;4.24;49.97;100087.87;4488977;31;20096;-80
2022/01/18 10:06:39;;;;;;;10.20;2.53;;;;;;;3.80;50.92;100089.91;4503631;31;20092;-81
2022/01/18 10:09:10;;;;;;;13.62;2.55;;;;;;;3.50;51.07;100084.00;4489240;31;20114;-80
2022/01/18 10:11:35;;;;;;;9.07;2.40;;;;;;;3.53;51.30;100102.22;4476651;32;20141;-80
2022/01/18 10:14:01;;;;;;;9.35;1.95;;;;;;;3.76;50.12;100089.94;4487666;32;20382;-81
2022/01/18 10:16:26;;;;;;;10.65;2.25;;;;;;;3.54;51.12;100082.25;4487724;32;20111;-82
2022/01/18 10:18:54;;;;;;;11.30;2.35;;;;;;;3.70;50.97;100111.69;4487590;32;20110;-82
2022/01/18 10:21:23;;;;;;;11.95;2.35;;;;;;;3.76;50.61;100102.97;4459725;32;20156;-82
2022/01/18 10:23:51;;;;;;;10.10;2.35;;;;;;;3.59;51.04;100101.31;4489554;31;20093;-79
2022/01/18 10:26:22;;;;;;;9.43;2.20;;;;;;;3.65;51.13;100111.72;4487620;32;20080;-79
2022/01/18 10:28:57;;;;;;;13.23;2.20;;;;;;;3.40;51.52;100125.72;4473237;32;20080;-79
2022/01/18 10:31:24;;;;;;;9.25;2.00;;;;;;;3.58;50.99;100102.19;4476549;31;20110;-79
2022/01/18 10:34:09;;;;;;;20.23;3.17;;;;;;;3.59;51.08;100113.47;4502976;31;20167;-79
2022/01/18 10:36:35;;;;;;;9.85;2.87;;;;;;;3.45;51.26;100098.78;4503425;31;20095;-79
2022/01/18 10:39:02;;;;;;;12.75;2.05;;;;;;;3.82;50.71;100082.94;4475745;31;20138;-80
2022/01/18 10:41:32;;;;;;;14.20;2.40;;;;;;;4.12;50.32;100104.47;4488982;31;20122;-79
2022/01/18 10:44:02;;;;;;;8.88;2.42;;;;;;;4.34;49.93;100099.94;4488911;31;20595;-80
2022/01/18 10:46:33;;;;;;;10.77;2.90;;;;;;;4.38;49.77;100100.78;4487958;31;20096;-80
2022/01/18 10:48:59;;;;;;;12.45;2.60;;;;;;;4.63;49.01;100110.12;4460301;32;20545;-79
2022/01/18 10:51:28;;;;;;;12.50;2.58;;;;;;;4.32;49.55;100117.38;4472738;32;20130;-79
2022/01/18 10:54:11;;;;;;;15.57;2.45;;;;;;;4.05;50.77;100115.81;4487288;32;20104;-80
2022/01/18 10:56:47;;;;;;;9.52;2.40;;;;;;;4.01;50.81;100088.91;4487345;32;20092;-80
2022/01/18 10:59:23;;;;;;;12.93;2.50;;;;;;;4.10;50.24;100091.44;4472744;32;20493;-80
2022/01/18 11:02:13;;;;;;;10.68;2.78;;;;;;;4.18;50.43;100086.16;4487183;32;20596;-79
2022/01/18 11:04:47;;;;;;;13.10;3.45;;;;;;;3.99;50.83;100110.66;4454452;32;20156;-79
2022/01/18 11:07:14;;;;;;;11.07;2.40;;;;;;;4.07;50.66;100119.28;4454715;32;20131;-79
2022/01/18 11:09:41;;;;;;;12.60;2.72;;;;;;;3.72;51.16;100096.91;4455647;32;20470;-79
2022/01/18 11:12:08;;;;;;;11.00;2.85;;;;;;;3.95;51.26;100120.22;4455937;32;20081;-80
2022/01/18 11:14:36;;;;;;;10.57;2.40;;;;;;;3.77;51.80;100117.72;4441756;32;20204;-80
2022/01/18 11:17:03;;;;;;;9.85;2.67;;;;;;;3.80;51.47;100122.94;4441923;32;20432;-80
2022/01/18 11:19:32;;;;;;;10.52;3.15;;;;;;;3.85;51.42;100103.78;4455838;32;20097;-79
2022/01/18 11:22:06;;;;;;;13.75;2.62;;;;;;;4.04;51.20;100114.97;4441681;32;20105;-80
2022/01/18 11:24:35;;;;;;;10.25;2.67;;;;;;;4.13;50.88;100117.50;4455892;32;20119;-80
2022/01/18 11:27:03;;;;;;;13.50;2.30;;;;;;;3.89;51.46;100125.47;4454547;32;20097;-79
2022/01/18 11:29:29;;;;;;;;;;;;;;;3.87;51.40;100114.22;4442112;32;20537;-80
2022/01/18 11:31:55;;;;;;;13.13;2.95;;;;;;;3.71;51.96;100110.81;4454378;32;19980;-80
2022/01/18 11:35:02;;;;;;;12.65;3.10;;;;;;;3.92;51.56;100099.38;4454235;32;20120;-80
2022/01/18 11:37:42;;;;;;;8.57;2.12;;;;;;;3.94;51.74;100090.69;4451072;32;20370;-80
2022/01/18 11:40:10;;;;;;;11.18;2.75;;;;;;;3.84;52.09;100103.78;4454610;32;20566;-80
2022/01/18 11:42:46;;;;;;;10.82;2.67;;;;;;;3.54;52.66;100092.66;4455477;32;20121;-80
2022/01/18 11:45:44;;;;;;;10.80;2.58;;;;;;;3.54;53.25;100134.34;4454260;32;20136;-80
2022/01/18 11:48:11;;;;;;;12.55;2.65;;;;;;;3.60;53.19;100136.06;4434649;32;20104;-80
2022/01/18 11:51:11;;;;;;;10.88;2.75;;;;;;;4.02;52.13;100132.37;4454303;32;20131;-80
2022/01/18 11:53:46;;;;;;;9.50;2.60;;;;;;;4.02;51.23;100126.25;4440282;32;20080;-80
2022/01/18 11:56:31;;;;;;;7.65;1.87;;;;;;;4.07;50.99;100121.87;4455869;32;20137;-80
2022/01/18 11:59:14;;;;;;;13.13;2.42;;;;;;;3.89;51.40;100141.13;4441407;32;20488;-80
2022/01/18 12:02:00;;;;;;;11.23;2.70;;;;;;;4.03;50.92;100121.03;4454374;32;20104;-81
2022/01/18 12:04:51;;;;;;;11.98;2.78;;;;;;;3.81;51.26;100132.50;4444511;32;20085;-80
2022/01/18 12:07:38;;;;;;;12.02;2.00;;;;;;;3.96;51.11;100136.72;4469744;32;20499;-81
2022/01/18 12:10:08;;;;;;;11.43;2.90;;;;;;;4.18;50.72;100146.16;4469705;32;20123;-80
2022/01/18 12:12:45;;;;;;;10.48;2.50;;;;;;;4.08;50.54;100140.12;4470647;32;20119;-80
2022/01/18 12:15:19;;;;;;;12.52;2.83;;;;;;;4.25;50.38;100141.75;4469645;32;20506;-80
2022/01/18 12:17:54;;;;;;;14.20;2.67;;;;;;;4.19;50.82;100144.41;4469656;32;20568;-81
2022/01/18 12:20:40;;;;;;;10.32;2.85;;;;;;;4.47;50.06;100132.03;4470891;32;20108;-84
2022/01/18 12:23:20;;;;;;;11.20;2.55;;;;;;;4.21;50.75;100133.09;4470858;32;20129;-83
2022/01/18 12:26:16;;;;;;;10.02;2.83;;;;;;;4.09;51.14;100125.34;4456867;32;20504;-83
2022/01/18 12:34:29;;;;;;;14.00;3.33;;;;;;;3.84;51.95;100093.34;4470785;32;20164;-83
2022/01/18 12:37:17;;;;;;;11.77;2.78;;;;;;;4.15;51.28;100088.78;4470858;32;20110;-83
2022/01/18 12:45:00;;;;;;;15.10;4.25;;;;;;;3.65;52.48;100116.03;4471812;32;20158;-83
2022/01/18 12:47:26;;;;;;;8.35;2.50;;;;;;;3.73;52.19;100111.69;4472546;32;20088;-83
2022/01/18 12:49:52;;;;;;;13.18;2.72;;;;;;;3.71;52.43;100109.06;4472379;32;20138;-83
2022/01/18 12:52:18;;;;;;;11.82;3.15;;;;;;;3.56;52.83;100106.56;4471523;32;20116;-83
2022/01/18 12:54:43;;;;;;;10.65;2.37;;;;;;;3.69;52.71;100104.72;4458214;32;20119;-83
2022/01/18 12:57:12;;;;;;;13.85;3.10;;;;;;;3.69;52.90;100108.22;4471281;32;20432;-83
2022/01/18 13:00:02;;;;;;;9.20;2.17;;;;;;;3.91;52.06;100114.16;4471069;32;20122;-83
2022/01/18 13:02:28;;;;;;;14.65;3.12;;;;;;;3.59;52.56;100157.78;4472632;32;20093;-83